KELM/ELM METAR and TAF weather

Enter ICAO airport designator
Station Type Date Time Source
KELM METAR 2019/06/17 12:53 UTC NOAA

KELM 171253Z 00000KT 10SM CLR 15/13 A3002 RMK AO2 SLP164 T01500128


Station Type Date Time Source
KELM Decoded METAR 2019/06/17 12:53 UTC NOAA

ELMIRA COUNTY AIRPORT, NY, United States (KELM) 42-10N 76-54W 302M
Jun 17, 2019 - 08:53 AM EDT / 2019.06.17 1253 UTC
Wind: Calm:0
Visibility: 10 mile(s):0
Sky conditions: clear
Temperature: 59.0 F (15.0 C)
Dew Point: 55.0 F (12.8 C)
Relative Humidity: 86%
Pressure (altimeter): 30.02 in. Hg (1016 hPa)
ob: KELM 171253Z 00000KT 10SM CLR 15/13 A3002 RMK AO2 SLP164 T01500128
cycle: 13

Station Type Date Time Source
KELM TAF 2019/06/17 12:42 UTC NOAA

TAF KELM 171139Z 1712/1812 00000KT 3SM BR OVC004
TEMPO 1712/1713 2SM BR OVC002
FM171400 00000KT P6SM BKN050
FM180200 00000KT P6SM BKN027

Example: see airport list